Time;durP1;ratioP1;P1;durP2;ratioP2;P2;SDS_P1;SDS_P2;PMS_P1;PMS_P2;Temp;Humidity;BMP_temperature;BMP_pressure;BME280_temperature;BME280_humidity;BME280_pressure;Samples;Min_cycle;Max_cycle;Signal;HPM_P1;HPM_P2
2023/03/25 00:00:32;;;;;;;10.13;5.68;;;;;;;;;;10527713;28;20028;-73
2023/03/25 00:05:53;;;;;;;14.90;5.70;;;;;;;;;;10489659;28;20573;-73
2023/03/25 00:11:14;;;;;;;10.95;6.03;;;;;;;;;;10485915;28;20388;-73
2023/03/25 00:16:35;;;;;;;16.20;7.38;;;;;;;;;;10497254;28;20041;-73
2023/03/25 00:21:56;;;;;;;16.45;7.57;;;;;;;;;;10491558;28;20033;-73
2023/03/25 00:27:17;;;;;;;14.68;6.15;;;;;;;;;;10485935;28;20051;-73
2023/03/25 00:32:38;;;;;;;9.50;5.78;;;;;;;;;;10496814;28;20044;-73
2023/03/25 00:38:00;;;;;;;9.70;6.00;;;;;;;;;;10514464;28;20043;-73
2023/03/25 00:43:21;;;;;;;9.00;5.82;;;;;;;;;;10501793;28;20493;-73
2023/03/25 00:48:42;;;;;;;19.52;6.95;;;;;;;;;;10469085;28;20040;-73
2023/03/25 00:54:03;;;;;;;13.38;6.05;;;;;;;;;;10487062;28;20854;-73
2023/03/25 00:59:24;;;;;;;19.17;7.30;;;;;;;;;;10479224;28;20508;-73
2023/03/25 01:04:45;;;;;;;18.60;7.32;;;;;;;;;;10476288;28;20043;-73
2023/03/25 01:10:07;;;;;;;21.08;7.82;;;;;;;;;;10487521;28;20029;-73
2023/03/25 01:15:27;;;;;;;14.75;7.15;;;;;;;;;;10467382;28;20060;-73
2023/03/25 01:20:48;;;;;;;20.65;7.53;;;;;;;;;;10499977;28;20047;-73
2023/03/25 01:26:11;;;;;;;15.52;7.15;;;;;;;;;;10490140;28;20040;-73
2023/03/25 01:31:32;;;;;;;16.30;6.40;;;;;;;;;;10481373;28;20562;-73
2023/03/25 01:36:54;;;;;;;9.65;5.65;;;;;;;;;;10493231;28;20044;-73
2023/03/25 01:42:15;;;;;;;11.52;6.43;;;;;;;;;;10494007;28;20037;-73
2023/03/25 01:47:36;;;;;;;17.33;7.05;;;;;;;;;;10485114;28;20036;-73
2023/03/25 01:52:58;;;;;;;9.13;5.88;;;;;;;;;;10510382;28;20025;-73
2023/03/25 01:58:19;;;;;;;10.38;5.57;;;;;;;;;;10489230;28;20049;-73
2023/03/25 02:03:45;;;;;;;14.98;6.32;;;;;;;;;;10481904;28;20393;-70
2023/03/25 02:09:07;;;;;;;12.85;6.60;;;;;;;;;;10481251;28;20502;-70
2023/03/25 02:14:31;;;;;;;12.60;6.43;;;;;;;;;;10475963;28;20035;-71
2023/03/25 02:19:52;;;;;;;11.02;5.97;;;;;;;;;;10479712;28;20599;-71
2023/03/25 02:25:12;;;;;;;13.98;7.25;;;;;;;;;;10481429;28;20048;-71
2023/03/25 02:30:33;;;;;;;11.93;6.82;;;;;;;;;;10493231;28;20049;-71
2023/03/25 02:36:13;;;;;;;10.77;6.15;;;;;;;;;;10495675;28;20539;-72
2023/03/25 02:41:46;;;;;;;12.70;6.53;;;;;;;;;;10488655;28;20037;-71
2023/03/25 02:47:09;;;;;;;11.07;6.43;;;;;;;;;;10475839;28;20028;-70
2023/03/25 02:52:38;;;;;;;12.60;5.50;;;;;;;;;;10492043;28;20037;-70
2023/03/25 02:58:02;;;;;;;15.52;7.25;;;;;;;;;;10488713;28;20040;-71
2023/03/25 03:03:24;;;;;;;17.55;7.20;;;;;;;;;;10477758;28;20420;-71
2023/03/25 03:08:49;;;;;;;15.48;6.50;;;;;;;;;;10486577;28;20024;-71
2023/03/25 03:14:20;;;;;;;16.20;7.53;;;;;;;;;;10485054;28;20041;-70
2023/03/25 03:19:45;;;;;;;23.38;7.72;;;;;;;;;;10487867;28;20024;-71
2023/03/25 03:25:05;;;;;;;21.95;7.38;;;;;;;;;;10482062;28;20043;-71
2023/03/25 03:30:33;;;;;;;21.75;7.85;;;;;;;;;;10486779;28;20029;-71
2023/03/25 03:35:57;;;;;;;14.52;6.75;;;;;;;;;;10486676;28;20051;-72
2023/03/25 03:41:19;;;;;;;13.05;6.82;;;;;;;;;;10529666;28;20413;-72
2023/03/25 03:46:40;;;;;;;11.90;6.53;;;;;;;;;;10496431;28;20021;-71
2023/03/25 03:52:07;;;;;;;17.17;7.72;;;;;;;;;;10510652;28;20044;-75
2023/03/25 03:57:39;;;;;;;15.38;6.32;;;;;;;;;;10486685;28;20040;-74
2023/03/25 04:03:03;;;;;;;20.88;7.10;;;;;;;;;;10494568;28;20036;-74
2023/03/25 04:08:28;;;;;;;19.70;7.90;;;;;;;;;;10479898;28;20386;-74
2023/03/25 04:13:52;;;;;;;17.38;7.28;;;;;;;;;;10466981;28;20049;-75
2023/03/25 04:19:17;;;;;;;17.30;6.65;;;;;;;;;;10487438;28;20028;-74
2023/03/25 04:24:40;;;;;;;19.38;7.13;;;;;;;;;;10482900;28;20036;-74
2023/03/25 04:30:02;;;;;;;15.23;6.35;;;;;;;;;;10482201;28;20102;-74
2023/03/25 04:35:24;;;;;;;18.63;7.07;;;;;;;;;;10471923;28;20040;-74
2023/03/25 04:40:45;;;;;;;20.98;7.95;;;;;;;;;;10486544;28;20024;-74
2023/03/25 04:46:08;;;;;;;11.85;5.55;;;;;;;;;;10478772;28;20032;-74
2023/03/25 04:51:29;;;;;;;20.67;7.22;;;;;;;;;;10492003;28;20055;-74
2023/03/25 04:56:51;;;;;;;19.13;7.13;;;;;;;;;;10491395;28;20059;-74
2023/03/25 05:02:12;;;;;;;12.60;6.28;;;;;;;;;;10506167;28;20051;-74
2023/03/25 05:07:33;;;;;;;12.85;6.25;;;;;;;;;;10494901;28;20060;-74
2023/03/25 05:12:58;;;;;;;19.88;6.95;;;;;;;;;;10504261;28;20043;-74
2023/03/25 05:18:19;;;;;;;10.88;6.13;;;;;;;;;;10509267;28;20062;-75
2023/03/25 05:23:40;;;;;;;19.45;8.52;;;;;;;;;;10503752;28;20020;-75
2023/03/25 05:29:03;;;;;;;19.63;7.38;;;;;;;;;;10497999;28;20040;-74
2023/03/25 05:34:24;;;;;;;16.33;6.75;;;;;;;;;;10500741;28;20055;-74
2023/03/25 05:39:45;;;;;;;9.55;5.35;;;;;;;;;;10495528;28;20490;-74
2023/03/25 05:45:06;;;;;;;14.60;6.05;;;;;;;;;;10485960;28;20033;-74
2023/03/25 05:50:27;;;;;;;12.02;5.90;;;;;;;;;;10503266;28;20497;-73
2023/03/25 05:55:50;;;;;;;15.73;6.75;;;;;;;;;;10516445;28;20347;-74
2023/03/25 06:01:14;;;;;;;10.40;6.57;;;;;;;;;;10499007;28;20040;-74
2023/03/25 06:06:35;;;;;;;16.40;7.10;;;;;;;;;;10481816;28;20025;-74
2023/03/25 06:11:56;;;;;;;12.20;6.60;;;;;;;;;;10480630;28;20040;-74
2023/03/25 06:17:17;;;;;;;19.10;7.45;;;;;;;;;;10484286;28;20044;-74
2023/03/25 06:22:39;;;;;;;12.30;6.53;;;;;;;;;;10482391;28;20028;-74
2023/03/25 06:28:02;;;;;;;13.40;6.10;;;;;;;;;;10493119;28;20024;-74
2023/03/25 06:33:23;;;;;;;14.10;6.90;;;;;;;;;;10481827;28;20036;-74
2023/03/25 06:38:44;;;;;;;19.08;7.25;;;;;;;;;;10476709;28;20059;-73
2023/03/25 06:44:05;;;;;;;15.45;7.10;;;;;;;;;;10459436;28;20437;-73
2023/03/25 06:49:26;;;;;;;22.58;7.55;;;;;;;;;;10478275;28;20071;-73
2023/03/25 06:54:47;;;;;;;14.40;6.32;;;;;;;;;;10487191;28;20043;-73
2023/03/25 07:00:10;;;;;;;14.55;6.72;;;;;;;;;;10529590;28;20037;-73
2023/03/25 07:05:31;;;;;;;16.40;7.07;;;;;;;;;;10522561;28;20862;-73
2023/03/25 07:10:52;;;;;;;23.98;7.32;;;;;;;;;;10534188;28;20039;-73
2023/03/25 07:16:13;;;;;;;22.92;7.82;;;;;;;;;;10524742;28;20031;-73
2023/03/25 07:21:34;;;;;;;24.45;7.47;;;;;;;;;;10530935;28;20114;-73
2023/03/25 07:26:55;;;;;;;24.45;8.10;;;;;;;;;;10528664;28;20412;-73
2023/03/25 07:32:16;;;;;;;17.38;6.82;;;;;;;;;;10528367;28;20047;-73
2023/03/25 07:37:37;;;;;;;14.65;6.80;;;;;;;;;;10522017;28;20059;-74
2023/03/25 07:42:58;;;;;;;24.13;7.25;;;;;;;;;;10546609;28;20488;-74
2023/03/25 07:48:21;;;;;;;17.30;7.30;;;;;;;;;;10551858;28;20028;-74
2023/03/25 07:53:44;;;;;;;18.67;7.35;;;;;;;;;;10523408;28;20043;-74
2023/03/25 07:59:04;;;;;;;18.95;7.00;;;;;;;;;;10501029;28;20520;-73
2023/03/25 08:04:25;;;;;;;14.57;6.97;;;;;;;;;;10482119;28;20040;-73
2023/03/25 08:09:46;;;;;;;20.20;6.75;;;;;;;;;;10475662;28;20032;-74
2023/03/25 08:15:08;;;;;;;22.63;7.60;;;;;;;;;;10479266;28;20028;-74
2023/03/25 08:20:29;;;;;;;30.83;10.02;;;;;;;;;;10483758;28;20037;-74
2023/03/25 08:25:50;;;;;;;16.40;7.45;;;;;;;;;;10479258;28;20032;-74
2023/03/25 08:31:11;;;;;;;22.17;6.93;;;;;;;;;;10479007;28;20440;-74
2023/03/25 08:36:32;;;;;;;17.02;8.05;;;;;;;;;;10487566;28;20035;-74
2023/03/25 08:41:52;;;;;;;12.73;7.07;;;;;;;;;;10492214;28;20032;-75
2023/03/25 08:47:13;;;;;;;23.60;8.43;;;;;;;;;;10490199;28;20063;-74
2023/03/25 08:52:35;;;;;;;27.25;9.05;;;;;;;;;;10482135;28;20029;-73
2023/03/25 08:57:55;;;;;;;24.27;8.68;;;;;;;;;;10467419;28;20510;-73
2023/03/25 09:03:16;;;;;;;18.05;7.20;;;;;;;;;;10485281;28;20036;-73
2023/03/25 09:08:37;;;;;;;23.42;7.35;;;;;;;;;;10469563;28;20036;-74
2023/03/25 09:14:01;;;;;;;25.52;8.20;;;;;;;;;;10467650;28;20028;-73
2023/03/25 09:19:22;;;;;;;19.08;6.78;;;;;;;;;;10476058;28;20036;-74
2023/03/25 09:24:43;;;;;;;21.00;6.88;;;;;;;;;;10465125;28;20033;-74
2023/03/25 09:30:05;;;;;;;29.30;8.55;;;;;;;;;;10477740;28;20532;-74
2023/03/25 09:35:26;;;;;;;21.88;7.30;;;;;;;;;;10478731;28;20033;-74
2023/03/25 09:40:47;;;;;;;23.38;7.25;;;;;;;;;;10479739;28;20032;-74
2023/03/25 09:46:08;;;;;;;24.60;8.40;;;;;;;;;;10473190;28;20032;-73
2023/03/25 09:51:31;;;;;;;28.08;8.15;;;;;;;;;;10487511;28;20055;-73
2023/03/25 09:56:55;;;;;;;25.08;7.28;;;;;;;;;;10511458;28;20060;-73
2023/03/25 10:02:36;;;;;;;22.38;7.20;;;;;;;;;;10508032;28;20036;-72
2023/03/25 10:08:26;;;;;;;18.73;7.60;;;;;;;;;;10505979;28;20028;-74
2023/03/25 10:14:06;;;;;;;17.30;7.38;;;;;;;;;;10459735;28;20039;-73
2023/03/25 10:19:39;;;;;;;20.73;6.90;;;;;;;;;;10529371;28;20036;-73
2023/03/25 10:25:03;;;;;;;19.70;8.57;;;;;;;;;;10514188;28;20044;-73
2023/03/25 10:30:26;;;;;;;19.80;8.48;;;;;;;;;;10518681;28;20044;-72
2023/03/25 10:35:47;;;;;;;21.50;8.93;;;;;;;;;;10520752;28;20044;-73
2023/03/25 10:41:14;;;;;;;28.13;9.05;;;;;;;;;;10523763;28;20032;-73
2023/03/25 10:46:46;;;;;;;19.55;8.68;;;;;;;;;;10518123;28;20036;-73
2023/03/25 10:52:08;;;;;;;24.10;8.85;;;;;;;;;;10545556;28;20096;-74
2023/03/25 10:57:30;;;;;;;17.10;7.45;;;;;;;;;;10530092;28;20055;-72
2023/03/25 11:02:51;;;;;;;29.63;9.20;;;;;;;;;;10540752;28;20138;-74
2023/03/25 11:08:14;;;;;;;19.75;9.15;;;;;;;;;;10525880;28;20505;-73
2023/03/25 11:13:35;;;;;;;15.20;7.93;;;;;;;;;;10544088;28;20032;-73
2023/03/25 11:18:59;;;;;;;28.95;8.23;;;;;;;;;;10538426;28;20032;-73
2023/03/25 11:24:21;;;;;;;33.45;9.18;;;;;;;;;;10524767;28;20042;-73
2023/03/25 11:29:47;;;;;;;26.52;7.60;;;;;;;;;;10524623;28;20040;-73
2023/03/25 11:35:16;;;;;;;23.40;6.90;;;;;;;;;;10506592;28;20493;-74
2023/03/25 11:40:47;;;;;;;23.50;8.20;;;;;;;;;;10523469;28;20036;-74
2023/03/25 11:46:19;;;;;;;17.50;5.82;;;;;;;;;;10510084;28;20036;-74
2023/03/25 11:51:40;;;;;;;18.23;5.38;;;;;;;;;;10524305;28;20093;-74
2023/03/25 11:57:03;;;;;;;16.40;6.00;;;;;;;;;;10494217;28;20493;-74
2023/03/25 12:02:35;;;;;;;16.60;5.95;;;;;;;;;;10484387;28;20033;-75
2023/03/25 12:08:02;;;;;;;20.25;5.85;;;;;;;;;;10488994;28;20036;-74
2023/03/25 12:13:39;;;;;;;28.15;8.02;;;;;;;;;;10494879;28;20055;-73
2023/03/25 12:19:09;;;;;;;12.48;6.20;;;;;;;;;;10492666;28;20405;-74
2023/03/25 12:24:45;;;;;;;13.10;5.38;;;;;;;;;;10479216;28;20044;-73
2023/03/25 12:30:11;;;;;;;17.05;6.63;;;;;;;;;;10486930;28;20040;-73
2023/03/25 12:35:35;;;;;;;9.75;6.32;;;;;;;;;;10499547;28;20374;-73
2023/03/25 12:40:56;;;;;;;11.75;6.38;;;;;;;;;;10509955;28;20103;-73
2023/03/25 12:46:40;;;;;;;15.23;7.18;;;;;;;;;;10482453;28;20508;-74
2023/03/25 12:52:27;;;;;;;16.08;6.88;;;;;;;;;;10461129;28;20400;-73
2023/03/25 12:58:07;;;;;;;20.15;6.80;;;;;;;;;;10470207;28;20417;-74
2023/03/25 13:03:30;;;;;;;15.82;6.20;;;;;;;;;;10480977;28;20039;-74
2023/03/25 13:09:08;;;;;;;22.15;7.00;;;;;;;;;;10475522;28;20052;-73
2023/03/25 13:14:35;;;;;;;18.13;7.03;;;;;;;;;;10485154;28;20442;-73
2023/03/25 13:19:58;;;;;;;22.17;6.55;;;;;;;;;;10479249;28;20075;-73
2023/03/25 13:25:23;;;;;;;15.43;5.65;;;;;;;;;;10488488;28;20040;-73
2023/03/25 13:30:45;;;;;;;22.80;7.13;;;;;;;;;;10469677;28;20047;-73
2023/03/25 13:36:13;;;;;;;13.48;5.28;;;;;;;;;;10496398;28;20032;-73
2023/03/25 13:41:37;;;;;;;16.70;5.88;;;;;;;;;;10482853;28;20395;-74
2023/03/25 13:47:05;;;;;;;15.00;6.20;;;;;;;;;;10484898;28;20447;-73
2023/03/25 13:52:28;;;;;;;23.13;7.13;;;;;;;;;;10476300;28;20035;-74
2023/03/25 13:58:08;;;;;;;13.73;5.05;;;;;;;;;;10537816;28;20044;-74
2023/03/25 14:03:49;;;;;;;12.65;5.65;;;;;;;;;;10541392;28;20035;-74
2023/03/25 14:09:28;;;;;;;12.63;5.35;;;;;;;;;;10518453;28;20030;-74
2023/03/25 14:14:53;;;;;;;9.38;4.60;;;;;;;;;;10517366;28;20036;-74
2023/03/25 14:20:34;;;;;;;13.60;5.13;;;;;;;;;;10518246;28;20036;-74
2023/03/25 14:25:56;;;;;;;22.77;6.83;;;;;;;;;;10531619;28;20051;-74
2023/03/25 14:31:20;;;;;;;10.18;4.63;;;;;;;;;;10526375;28;20037;-74
2023/03/25 14:36:41;;;;;;;15.50;5.20;;;;;;;;;;10531286;28;20036;-73
2023/03/25 14:42:14;;;;;;;17.10;5.95;;;;;;;;;;10526104;28;20047;-74
2023/03/25 14:47:35;;;;;;;11.70;5.20;;;;;;;;;;10534187;28;20436;-75
2023/03/25 14:52:58;;;;;;;21.30;6.50;;;;;;;;;;10520932;28;20032;-73
2023/03/25 14:58:22;;;;;;;12.85;4.88;;;;;;;;;;10533315;28;20063;-72
2023/03/25 15:03:44;;;;;;;9.65;4.80;;;;;;;;;;10524225;28;20092;-73
2023/03/25 15:09:11;;;;;;;11.88;5.03;;;;;;;;;;10507641;28;20036;-73
2023/03/25 15:14:37;;;;;;;11.02;5.07;;;;;;;;;;10506126;28;20488;-72
2023/03/25 15:20:01;;;;;;;14.38;5.25;;;;;;;;;;10516469;28;20071;-72
2023/03/25 15:25:22;;;;;;;11.57;4.65;;;;;;;;;;10550464;28;20040;-73
2023/03/25 15:31:00;;;;;;;13.73;5.43;;;;;;;;;;10521175;28;20078;-73
2023/03/25 15:36:40;;;;;;;13.27;5.03;;;;;;;;;;10541909;28;20051;-75
2023/03/25 15:42:26;;;;;;;15.77;5.63;;;;;;;;;;10524174;28;20078;-72
2023/03/25 15:47:56;;;;;;;13.98;5.72;;;;;;;;;;10533082;28;20570;-74
2023/03/25 15:53:36;;;;;;;19.40;6.78;;;;;;;;;;10520486;28;20079;-74
2023/03/25 15:59:02;;;;;;;15.65;6.03;;;;;;;;;;10509306;28;20409;-74
2023/03/25 16:04:49;;;;;;;23.25;7.95;;;;;;;;;;10513808;28;20094;-74
2023/03/25 16:10:15;;;;;;;18.67;6.20;;;;;;;;;;10518531;28;20024;-74
2023/03/25 16:15:37;;;;;;;16.95;6.28;;;;;;;;;;10535440;28;20608;-71
2023/03/25 16:21:00;;;;;;;19.85;6.75;;;;;;;;;;10512153;28;20024;-71
2023/03/25 16:26:39;;;;;;;15.88;5.57;;;;;;;;;;10507997;28;20032;-71
2023/03/25 16:32:01;;;;;;;24.90;6.68;;;;;;;;;;10521358;28;20036;-71
2023/03/25 16:37:24;;;;;;;14.02;5.93;;;;;;;;;;10524056;28;20032;-71
2023/03/25 16:42:45;;;;;;;14.90;6.22;;;;;;;;;;10529232;28;20390;-71
2023/03/25 16:48:08;;;;;;;15.43;5.97;;;;;;;;;;10524118;28;20039;-71
2023/03/25 16:53:32;;;;;;;18.00;7.13;;;;;;;;;;10528157;27;20039;-71
2023/03/25 16:59:05;;;;;;;18.17;6.07;;;;;;;;;;10522080;28;20489;-71
2023/03/25 17:04:38;;;;;;;19.40;6.95;;;;;;;;;;10519301;28;20024;-69
2023/03/25 17:09:58;;;;;;;16.88;5.72;;;;;;;;;;10526901;28;20048;-69
2023/03/25 17:15:19;;;;;;;12.27;4.78;;;;;;;;;;10535570;28;20047;-68
2023/03/25 17:20:45;;;;;;;15.25;5.40;;;;;;;;;;10535078;28;20113;-71
2023/03/25 17:26:07;;;;;;;17.30;6.18;;;;;;;;;;10521489;28;20028;-71
2023/03/25 17:31:38;;;;;;;24.15;7.25;;;;;;;;;;10539330;28;20036;-71
2023/03/25 17:37:02;;;;;;;16.73;5.97;;;;;;;;;;10518048;28;20024;-71
2023/03/25 17:42:24;;;;;;;21.27;7.18;;;;;;;;;;10516202;28;20515;-71
2023/03/25 17:47:46;;;;;;;19.77;6.20;;;;;;;;;;10502592;28;20039;-71
2023/03/25 17:53:06;;;;;;;20.00;6.65;;;;;;;;;;10534571;28;20504;-71
2023/03/25 17:58:28;;;;;;;16.33;5.85;;;;;;;;;;10499855;28;20049;-71
2023/03/25 18:03:49;;;;;;;19.20;6.28;;;;;;;;;;10520270;27;20028;-70
2023/03/25 18:09:18;;;;;;;15.38;5.88;;;;;;;;;;10487966;28;20055;-69
2023/03/25 18:14:39;;;;;;;20.40;5.78;;;;;;;;;;10477292;28;20084;-70
2023/03/25 18:20:00;;;;;;;13.23;5.75;;;;;;;;;;10516128;28;20039;-70
2023/03/25 18:25:21;;;;;;;23.52;7.28;;;;;;;;;;10508470;28;20649;-70
2023/03/25 18:30:48;;;;;;;19.02;6.80;;;;;;;;;;10483208;28;20045;-69
2023/03/25 18:36:10;;;;;;;17.17;6.53;;;;;;;;;;10488294;28;20033;-69
2023/03/25 18:41:31;;;;;;;19.77;6.38;;;;;;;;;;10513363;28;20036;-72
2023/03/25 18:46:52;;;;;;;13.35;6.40;;;;;;;;;;10491459;28;20044;-74
2023/03/25 18:52:12;;;;;;;11.55;5.38;;;;;;;;;;10493171;28;20048;-74
2023/03/25 18:57:33;;;;;;;12.27;5.45;;;;;;;;;;10506068;28;20040;-72
2023/03/25 19:02:55;;;;;;;10.05;4.95;;;;;;;;;;10501116;28;20063;-72
2023/03/25 19:08:17;;;;;;;10.32;5.13;;;;;;;;;;10481124;28;20044;-72
2023/03/25 19:13:38;;;;;;;16.10;5.70;;;;;;;;;;10512778;28;20036;-72
2023/03/25 19:18:59;;;;;;;23.10;6.50;;;;;;;;;;10507966;28;20041;-71
2023/03/25 19:24:20;;;;;;;13.20;5.80;;;;;;;;;;10529854;28;20032;-72
2023/03/25 19:29:41;;;;;;;19.02;6.95;;;;;;;;;;10512652;28;20036;-72
2023/03/25 19:35:02;;;;;;;10.10;5.78;;;;;;;;;;10513289;28;20043;-71
2023/03/25 19:40:27;;;;;;;13.10;5.72;;;;;;;;;;10521515;28;20047;-72
2023/03/25 19:45:47;;;;;;;12.98;6.70;;;;;;;;;;10492818;28;20040;-72
2023/03/25 19:51:08;;;;;;;20.38;6.78;;;;;;;;;;10522628;28;20557;-72
2023/03/25 19:56:29;;;;;;;12.60;6.20;;;;;;;;;;10517348;28;20041;-71
2023/03/25 20:01:50;;;;;;;21.30;7.40;;;;;;;;;;10502071;28;20055;-71
2023/03/25 20:07:11;;;;;;;17.88;7.22;;;;;;;;;;10507539;28;20488;-71
2023/03/25 20:12:34;;;;;;;17.35;6.65;;;;;;;;;;10501479;28;20033;-71
2023/03/25 20:17:55;;;;;;;8.95;5.22;;;;;;;;;;10533462;27;20480;-71
2023/03/25 20:23:16;;;;;;;12.80;5.70;;;;;;;;;;10515666;28;20020;-71
2023/03/25 20:28:39;;;;;;;17.58;6.72;;;;;;;;;;10504960;28;20062;-70
2023/03/25 20:34:00;;;;;;;12.48;5.78;;;;;;;;;;10523887;28;20051;-72
2023/03/25 20:39:23;;;;;;;13.98;7.38;;;;;;;;;;10503617;28;20069;-71
2023/03/25 20:44:44;;;;;;;12.98;6.68;;;;;;;;;;10484876;28;20044;-70
2023/03/25 20:50:06;;;;;;;13.98;6.63;;;;;;;;;;10492993;28;20048;-71
2023/03/25 20:55:27;;;;;;;13.90;6.88;;;;;;;;;;10511049;28;20056;-71
2023/03/25 21:00:48;;;;;;;20.20;7.78;;;;;;;;;;10528111;28;20404;-71
2023/03/25 21:06:09;;;;;;;15.95;7.28;;;;;;;;;;10526932;28;20447;-71
2023/03/25 21:11:30;;;;;;;12.70;6.38;;;;;;;;;;10529148;28;20036;-71
2023/03/25 21:16:53;;;;;;;16.77;6.50;;;;;;;;;;10538769;28;20036;-71
2023/03/25 21:22:14;;;;;;;15.20;6.22;;;;;;;;;;10531746;28;20503;-71
2023/03/25 21:27:35;;;;;;;18.17;5.90;;;;;;;;;;10539468;28;20044;-71
2023/03/25 21:32:56;;;;;;;16.02;6.72;;;;;;;;;;10538243;28;20598;-71
2023/03/25 21:38:17;;;;;;;51.90;14.77;;;;;;;;;;10514859;28;20043;-72
2023/03/25 21:43:40;;;;;;;21.15;7.82;;;;;;;;;;10512964;28;20044;-71
2023/03/25 21:49:02;;;;;;;15.95;7.50;;;;;;;;;;10519267;28;20060;-71
2023/03/25 21:54:23;;;;;;;12.48;6.70;;;;;;;;;;10525488;28;20086;-71
2023/03/25 21:59:45;;;;;;;17.58;7.13;;;;;;;;;;10488312;28;20036;-71
2023/03/25 22:05:06;;;;;;;20.15;8.00;;;;;;;;;;10490216;28;20046;-71
2023/03/25 22:10:27;;;;;;;17.85;7.45;;;;;;;;;;10475553;28;20044;-71
2023/03/25 22:15:48;;;;;;;27.42;8.63;;;;;;;;;;10462968;28;20052;-71
2023/03/25 22:21:13;;;;;;;18.75;7.82;;;;;;;;;;10486063;28;20486;-71
2023/03/25 22:26:35;;;;;;;16.50;7.47;;;;;;;;;;10509843;28;20036;-71
2023/03/25 22:31:56;;;;;;;26.50;8.10;;;;;;;;;;10494357;28;20032;-71
2023/03/25 22:37:17;;;;;;;27.65;8.18;;;;;;;;;;10471227;28;20037;-71
2023/03/25 22:42:38;;;;;;;18.73;7.10;;;;;;;;;;10485202;28;20054;-72
2023/03/25 22:47:59;;;;;;;35.17;10.15;;;;;;;;;;10467458;28;20227;-71
2023/03/25 22:53:20;;;;;;;20.92;7.72;;;;;;;;;;10502720;28;20049;-71
2023/03/25 22:58:40;;;;;;;33.25;9.88;;;;;;;;;;10504627;28;20458;-71
2023/03/25 23:04:01;;;;;;;30.30;9.77;;;;;;;;;;10505701;28;20027;-71
2023/03/25 23:09:39;;;;;;;31.67;9.07;;;;;;;;;;10487423;28;20793;-72
2023/03/25 23:15:00;;;;;;;24.92;9.25;;;;;;;;;;10494972;28;20437;-72
2023/03/25 23:20:21;;;;;;;34.58;11.20;;;;;;;;;;10497310;28;20500;-72
2023/03/25 23:25:42;;;;;;;32.88;11.45;;;;;;;;;;10496937;28;20040;-72
2023/03/25 23:31:12;;;;;;;36.67;10.85;;;;;;;;;;10484087;28;20025;-72
2023/03/25 23:36:34;;;;;;;41.05;12.45;;;;;;;;;;10497700;28;20040;-72
2023/03/25 23:41:56;;;;;;;38.38;10.38;;;;;;;;;;10490670;28;20033;-72
2023/03/25 23:47:16;;;;;;;36.22;10.30;;;;;;;;;;10494345;28;20037;-72
2023/03/25 23:52:37;;;;;;;52.28;11.55;;;;;;;;;;10502563;28;20405;-72
2023/03/25 23:57:58;;;;;;;34.17;11.95;;;;;;;;;;10536037;28;20040;-72
